sensor_id;sensor_type;location;lat;lon;timestamp;P1;durP1;ratioP1;P2;durP2;ratioP2
54193;SDS011;40102;50.906;6.972;2023-05-10T00:00:50;4.65;;;3.20;;
54193;SDS011;40102;50.906;6.972;2023-05-10T00:03:16;4.78;;;2.85;;
54193;SDS011;40102;50.906;6.972;2023-05-10T00:05:41;4.45;;;3.38;;
54193;SDS011;40102;50.906;6.972;2023-05-10T00:08:07;3.97;;;3.00;;
54193;SDS011;40102;50.906;6.972;2023-05-10T00:10:32;4.78;;;3.42;;
54193;SDS011;40102;50.906;6.972;2023-05-10T00:12:58;4.85;;;3.63;;
54193;SDS011;40102;50.906;6.972;2023-05-10T00:15:23;4.18;;;3.17;;
54193;SDS011;40102;50.906;6.972;2023-05-10T00:17:48;7.80;;;3.90;;
54193;SDS011;40102;50.906;6.972;2023-05-10T00:20:14;4.65;;;3.15;;
54193;SDS011;40102;50.906;6.972;2023-05-10T00:22:39;4.35;;;3.40;;
54193;SDS011;40102;50.906;6.972;2023-05-10T00:25:05;6.85;;;4.10;;
54193;SDS011;40102;50.906;6.972;2023-05-10T00:27:31;5.50;;;3.85;;
54193;SDS011;40102;50.906;6.972;2023-05-10T00:29:56;4.95;;;4.05;;
54193;SDS011;40102;50.906;6.972;2023-05-10T00:32:22;4.35;;;3.33;;
54193;SDS011;40102;50.906;6.972;2023-05-10T00:34:47;4.70;;;3.58;;
54193;SDS011;40102;50.906;6.972;2023-05-10T00:37:12;4.68;;;3.40;;
54193;SDS011;40102;50.906;6.972;2023-05-10T00:39:38;4.63;;;3.55;;
54193;SDS011;40102;50.906;6.972;2023-05-10T00:42:03;6.13;;;4.30;;
54193;SDS011;40102;50.906;6.972;2023-05-10T00:44:29;5.50;;;4.10;;
54193;SDS011;40102;50.906;6.972;2023-05-10T00:46:55;6.65;;;4.43;;
54193;SDS011;40102;50.906;6.972;2023-05-10T00:49:21;6.43;;;4.35;;
54193;SDS011;40102;50.906;6.972;2023-05-10T00:51:47;5.70;;;3.75;;
54193;SDS011;40102;50.906;6.972;2023-05-10T00:54:13;5.78;;;3.90;;
54193;SDS011;40102;50.906;6.972;2023-05-10T00:56:41;6.97;;;4.32;;
54193;SDS011;40102;50.906;6.972;2023-05-10T00:59:08;7.50;;;4.47;;
54193;SDS011;40102;50.906;6.972;2023-05-10T01:01:34;7.57;;;5.50;;
54193;SDS011;40102;50.906;6.972;2023-05-10T01:04:00;7.53;;;5.18;;
54193;SDS011;40102;50.906;6.972;2023-05-10T01:06:26;8.25;;;5.60;;
54193;SDS011;40102;50.906;6.972;2023-05-10T01:08:52;8.23;;;5.75;;
54193;SDS011;40102;50.906;6.972;2023-05-10T01:11:18;8.38;;;5.70;;
54193;SDS011;40102;50.906;6.972;2023-05-10T01:13:53;7.47;;;5.30;;
54193;SDS011;40102;50.906;6.972;2023-05-10T01:16:21;8.00;;;6.15;;
54193;SDS011;40102;50.906;6.972;2023-05-10T01:18:47;8.52;;;5.82;;
54193;SDS011;40102;50.906;6.972;2023-05-10T01:21:26;6.15;;;4.78;;
54193;SDS011;40102;50.906;6.972;2023-05-10T01:35:19;7.78;;;5.40;;
54193;SDS011;40102;50.906;6.972;2023-05-10T01:37:48;8.63;;;5.55;;
54193;SDS011;40102;50.906;6.972;2023-05-10T01:43:02;8.25;;;5.72;;
54193;SDS011;40102;50.906;6.972;2023-05-10T01:45:31;6.72;;;4.78;;
54193;SDS011;40102;50.906;6.972;2023-05-10T01:48:04;8.10;;;5.25;;
54193;SDS011;40102;50.906;6.972;2023-05-10T01:50:32;7.53;;;5.40;;
54193;SDS011;40102;50.906;6.972;2023-05-10T01:53:00;6.10;;;4.68;;
54193;SDS011;40102;50.906;6.972;2023-05-10T01:55:28;6.93;;;4.80;;
54193;SDS011;40102;50.906;6.972;2023-05-10T01:58:04;6.47;;;4.40;;
54193;SDS011;40102;50.906;6.972;2023-05-10T02:00:34;6.90;;;4.88;;
54193;SDS011;40102;50.906;6.972;2023-05-10T02:03:01;7.00;;;4.25;;
54193;SDS011;40102;50.906;6.972;2023-05-10T02:05:30;5.60;;;3.83;;
54193;SDS011;40102;50.906;6.972;2023-05-10T02:07:57;7.05;;;4.60;;
54193;SDS011;40102;50.906;6.972;2023-05-10T02:10:23;5.72;;;4.05;;
54193;SDS011;40102;50.906;6.972;2023-05-10T02:12:49;5.47;;;3.70;;
54193;SDS011;40102;50.906;6.972;2023-05-10T02:15:17;5.43;;;4.15;;
54193;SDS011;40102;50.906;6.972;2023-05-10T02:17:46;5.15;;;3.92;;
54193;SDS011;40102;50.906;6.972;2023-05-10T02:20:11;7.18;;;3.90;;
54193;SDS011;40102;50.906;6.972;2023-05-10T02:22:38;5.85;;;4.10;;
54193;SDS011;40102;50.906;6.972;2023-05-10T02:25:06;5.47;;;3.80;;
54193;SDS011;40102;50.906;6.972;2023-05-10T02:27:35;4.68;;;3.22;;
54193;SDS011;40102;50.906;6.972;2023-05-10T02:30:02;4.70;;;3.25;;
54193;SDS011;40102;50.906;6.972;2023-05-10T02:32:29;6.28;;;4.07;;
54193;SDS011;40102;50.906;6.972;2023-05-10T02:34:55;5.47;;;3.63;;
54193;SDS011;40102;50.906;6.972;2023-05-10T02:37:21;5.13;;;3.42;;
54193;SDS011;40102;50.906;6.972;2023-05-10T02:39:50;4.35;;;3.13;;
54193;SDS011;40102;50.906;6.972;2023-05-10T02:42:19;4.53;;;3.42;;
54193;SDS011;40102;50.906;6.972;2023-05-10T02:44:56;5.53;;;3.55;;
54193;SDS011;40102;50.906;6.972;2023-05-10T02:47:25;4.07;;;3.20;;
54193;SDS011;40102;50.906;6.972;2023-05-10T02:49:51;4.60;;;3.03;;
54193;SDS011;40102;50.906;6.972;2023-05-10T02:52:19;3.80;;;2.80;;
54193;SDS011;40102;50.906;6.972;2023-05-10T02:54:50;2.60;;;2.05;;
54193;SDS011;40102;50.906;6.972;2023-05-10T02:57:21;3.35;;;2.65;;
54193;SDS011;40102;50.906;6.972;2023-05-10T02:59:51;4.13;;;2.45;;
54193;SDS011;40102;50.906;6.972;2023-05-10T03:02:16;3.20;;;2.35;;
54193;SDS011;40102;50.906;6.972;2023-05-10T03:04:42;3.47;;;2.30;;
54193;SDS011;40102;50.906;6.972;2023-05-10T03:07:07;2.80;;;2.20;;
54193;SDS011;40102;50.906;6.972;2023-05-10T03:09:33;2.75;;;2.00;;
54193;SDS011;40102;50.906;6.972;2023-05-10T03:14:45;3.30;;;1.63;;
54193;SDS011;40102;50.906;6.972;2023-05-10T03:17:18;2.13;;;1.70;;
54193;SDS011;40102;50.906;6.972;2023-05-10T03:19:53;2.30;;;2.10;;
54193;SDS011;40102;50.906;6.972;2023-05-10T03:22:23;3.25;;;2.22;;
54193;SDS011;40102;50.906;6.972;2023-05-10T03:24:53;2.70;;;1.77;;
54193;SDS011;40102;50.906;6.972;2023-05-10T03:27:22;4.28;;;2.80;;
54193;SDS011;40102;50.906;6.972;2023-05-10T03:29:50;3.75;;;2.63;;
54193;SDS011;40102;50.906;6.972;2023-05-10T03:32:16;4.60;;;2.78;;
54193;SDS011;40102;50.906;6.972;2023-05-10T03:34:42;3.65;;;2.72;;
54193;SDS011;40102;50.906;6.972;2023-05-10T03:37:08;3.53;;;2.70;;
54193;SDS011;40102;50.906;6.972;2023-05-10T03:39:33;6.03;;;3.58;;
54193;SDS011;40102;50.906;6.972;2023-05-10T03:41:59;5.93;;;3.92;;
54193;SDS011;40102;50.906;6.972;2023-05-10T03:44:24;5.97;;;3.40;;
54193;SDS011;40102;50.906;6.972;2023-05-10T03:46:49;4.63;;;3.15;;
54193;SDS011;40102;50.906;6.972;2023-05-10T03:49:15;5.07;;;3.72;;
54193;SDS011;40102;50.906;6.972;2023-05-10T03:51:40;6.28;;;3.25;;
54193;SDS011;40102;50.906;6.972;2023-05-10T03:54:05;4.75;;;3.53;;
54193;SDS011;40102;50.906;6.972;2023-05-10T03:56:31;4.50;;;3.05;;
54193;SDS011;40102;50.906;6.972;2023-05-10T03:58:56;4.72;;;3.08;;
54193;SDS011;40102;50.906;6.972;2023-05-10T04:01:21;3.65;;;2.80;;
54193;SDS011;40102;50.906;6.972;2023-05-10T04:03:47;3.80;;;2.80;;
54193;SDS011;40102;50.906;6.972;2023-05-10T04:06:12;5.35;;;3.33;;
54193;SDS011;40102;50.906;6.972;2023-05-10T04:08:37;4.70;;;3.33;;
54193;SDS011;40102;50.906;6.972;2023-05-10T04:11:06;6.03;;;4.28;;
54193;SDS011;40102;50.906;6.972;2023-05-10T04:13:33;5.47;;;3.63;;
54193;SDS011;40102;50.906;6.972;2023-05-10T04:15:58;5.15;;;3.28;;
54193;SDS011;40102;50.906;6.972;2023-05-10T04:18:24;5.05;;;3.70;;
54193;SDS011;40102;50.906;6.972;2023-05-10T04:20:49;8.50;;;4.60;;
54193;SDS011;40102;50.906;6.972;2023-05-10T04:23:14;5.90;;;4.47;;
54193;SDS011;40102;50.906;6.972;2023-05-10T04:25:41;6.07;;;4.35;;
54193;SDS011;40102;50.906;6.972;2023-05-10T04:28:07;7.32;;;4.25;;
54193;SDS011;40102;50.906;6.972;2023-05-10T04:30:32;6.53;;;4.45;;
54193;SDS011;40102;50.906;6.972;2023-05-10T04:32:57;7.43;;;4.93;;
54193;SDS011;40102;50.906;6.972;2023-05-10T04:35:23;7.72;;;4.95;;
54193;SDS011;40102;50.906;6.972;2023-05-10T04:37:48;7.32;;;4.60;;
54193;SDS011;40102;50.906;6.972;2023-05-10T04:40:13;8.55;;;5.47;;
54193;SDS011;40102;50.906;6.972;2023-05-10T04:42:42;5.10;;;3.97;;
54193;SDS011;40102;50.906;6.972;2023-05-10T04:45:08;6.90;;;4.60;;
54193;SDS011;40102;50.906;6.972;2023-05-10T04:47:34;9.60;;;4.78;;
54193;SDS011;40102;50.906;6.972;2023-05-10T04:50:00;9.25;;;5.47;;
54193;SDS011;40102;50.906;6.972;2023-05-10T04:52:25;9.38;;;5.15;;
54193;SDS011;40102;50.906;6.972;2023-05-10T04:54:51;10.05;;;4.70;;
54193;SDS011;40102;50.906;6.972;2023-05-10T04:57:16;11.30;;;5.30;;
54193;SDS011;40102;50.906;6.972;2023-05-10T04:59:42;7.75;;;5.10;;
54193;SDS011;40102;50.906;6.972;2023-05-10T05:02:07;8.27;;;5.28;;
54193;SDS011;40102;50.906;6.972;2023-05-10T05:04:33;7.63;;;4.88;;
54193;SDS011;40102;50.906;6.972;2023-05-10T05:06:58;7.80;;;5.15;;
54193;SDS011;40102;50.906;6.972;2023-05-10T05:09:23;6.55;;;4.32;;
54193;SDS011;40102;50.906;6.972;2023-05-10T05:11:49;9.75;;;6.40;;
54193;SDS011;40102;50.906;6.972;2023-05-10T05:14:14;9.27;;;5.10;;
54193;SDS011;40102;50.906;6.972;2023-05-10T05:16:42;7.85;;;4.78;;
54193;SDS011;40102;50.906;6.972;2023-05-10T05:19:07;8.30;;;4.68;;
54193;SDS011;40102;50.906;6.972;2023-05-10T05:21:33;8.52;;;4.93;;
54193;SDS011;40102;50.906;6.972;2023-05-10T05:23:58;7.35;;;4.70;;
54193;SDS011;40102;50.906;6.972;2023-05-10T05:26:23;7.85;;;4.68;;
54193;SDS011;40102;50.906;6.972;2023-05-10T05:28:49;13.60;;;5.55;;
54193;SDS011;40102;50.906;6.972;2023-05-10T05:31:17;10.05;;;5.20;;
54193;SDS011;40102;50.906;6.972;2023-05-10T05:33:42;13.77;;;5.93;;
54193;SDS011;40102;50.906;6.972;2023-05-10T05:36:08;10.95;;;5.95;;
54193;SDS011;40102;50.906;6.972;2023-05-10T05:38:34;8.35;;;5.10;;
54193;SDS011;40102;50.906;6.972;2023-05-10T05:40:59;10.05;;;5.30;;
54193;SDS011;40102;50.906;6.972;2023-05-10T05:43:24;8.88;;;4.95;;
54193;SDS011;40102;50.906;6.972;2023-05-10T05:45:51;12.18;;;4.65;;
54193;SDS011;40102;50.906;6.972;2023-05-10T05:48:17;11.20;;;4.80;;
54193;SDS011;40102;50.906;6.972;2023-05-10T05:50:42;9.98;;;4.65;;
54193;SDS011;40102;50.906;6.972;2023-05-10T05:53:08;7.60;;;4.85;;
54193;SDS011;40102;50.906;6.972;2023-05-10T05:55:33;7.78;;;4.65;;
54193;SDS011;40102;50.906;6.972;2023-05-10T05:57:59;11.15;;;5.47;;
54193;SDS011;40102;50.906;6.972;2023-05-10T06:00:24;8.40;;;5.45;;
54193;SDS011;40102;50.906;6.972;2023-05-10T06:02:49;12.65;;;7.05;;
54193;SDS011;40102;50.906;6.972;2023-05-10T06:05:15;11.07;;;6.32;;
54193;SDS011;40102;50.906;6.972;2023-05-10T06:07:40;10.93;;;5.90;;
54193;SDS011;40102;50.906;6.972;2023-05-10T06:10:07;7.53;;;5.07;;
54193;SDS011;40102;50.906;6.972;2023-05-10T06:12:33;10.13;;;5.90;;
54193;SDS011;40102;50.906;6.972;2023-05-10T06:14:58;8.38;;;5.25;;
54193;SDS011;40102;50.906;6.972;2023-05-10T06:17:23;9.98;;;5.18;;
54193;SDS011;40102;50.906;6.972;2023-05-10T06:19:49;10.23;;;6.07;;
54193;SDS011;40102;50.906;6.972;2023-05-10T06:22:14;10.18;;;5.53;;
54193;SDS011;40102;50.906;6.972;2023-05-10T06:24:40;9.52;;;5.00;;
54193;SDS011;40102;50.906;6.972;2023-05-10T06:27:05;8.05;;;5.00;;
54193;SDS011;40102;50.906;6.972;2023-05-10T06:29:31;7.20;;;4.40;;
54193;SDS011;40102;50.906;6.972;2023-05-10T06:31:58;8.27;;;4.60;;
54193;SDS011;40102;50.906;6.972;2023-05-10T06:34:24;7.57;;;4.75;;
54193;SDS011;40102;50.906;6.972;2023-05-10T06:36:49;11.23;;;5.07;;
54193;SDS011;40102;50.906;6.972;2023-05-10T06:39:14;10.90;;;5.40;;
54193;SDS011;40102;50.906;6.972;2023-05-10T06:41:40;11.30;;;5.70;;
54193;SDS011;40102;50.906;6.972;2023-05-10T06:44:06;8.70;;;5.47;;
54193;SDS011;40102;50.906;6.972;2023-05-10T06:46:31;6.47;;;4.47;;
54193;SDS011;40102;50.906;6.972;2023-05-10T06:48:56;7.07;;;4.20;;
54193;SDS011;40102;50.906;6.972;2023-05-10T06:51:22;8.75;;;5.03;;
54193;SDS011;40102;50.906;6.972;2023-05-10T06:53:47;8.98;;;4.95;;
54193;SDS011;40102;50.906;6.972;2023-05-10T06:56:13;8.98;;;5.85;;
54193;SDS011;40102;50.906;6.972;2023-05-10T06:58:38;13.52;;;7.13;;
54193;SDS011;40102;50.906;6.972;2023-05-10T07:01:04;13.60;;;6.93;;
54193;SDS011;40102;50.906;6.972;2023-05-10T07:06:09;14.10;;;6.45;;
54193;SDS011;40102;50.906;6.972;2023-05-10T07:08:35;11.25;;;6.85;;
54193;SDS011;40102;50.906;6.972;2023-05-10T07:11:04;12.15;;;6.70;;
54193;SDS011;40102;50.906;6.972;2023-05-10T07:13:32;10.10;;;5.82;;
54193;SDS011;40102;50.906;6.972;2023-05-10T07:15:58;11.48;;;6.47;;
54193;SDS011;40102;50.906;6.972;2023-05-10T07:18:25;12.38;;;6.20;;
54193;SDS011;40102;50.906;6.972;2023-05-10T07:20:51;10.68;;;6.30;;
54193;SDS011;40102;50.906;6.972;2023-05-10T07:23:16;8.60;;;5.40;;
54193;SDS011;40102;50.906;6.972;2023-05-10T07:25:47;10.02;;;5.32;;
54193;SDS011;40102;50.906;6.972;2023-05-10T07:28:15;8.25;;;5.00;;
54193;SDS011;40102;50.906;6.972;2023-05-10T07:30:41;8.38;;;5.20;;
54193;SDS011;40102;50.906;6.972;2023-05-10T07:33:07;10.23;;;5.45;;
54193;SDS011;40102;50.906;6.972;2023-05-10T07:35:34;9.57;;;5.65;;
54193;SDS011;40102;50.906;6.972;2023-05-10T07:37:59;9.90;;;5.45;;
54193;SDS011;40102;50.906;6.972;2023-05-10T07:40:25;8.88;;;5.30;;
54193;SDS011;40102;50.906;6.972;2023-05-10T07:42:50;9.35;;;6.47;;
54193;SDS011;40102;50.906;6.972;2023-05-10T07:45:16;14.65;;;6.65;;
54193;SDS011;40102;50.906;6.972;2023-05-10T07:47:41;13.13;;;6.72;;
54193;SDS011;40102;50.906;6.972;2023-05-10T07:50:07;12.48;;;6.63;;
54193;SDS011;40102;50.906;6.972;2023-05-10T07:52:32;11.65;;;6.03;;
54193;SDS011;40102;50.906;6.972;2023-05-10T07:54:58;11.60;;;5.93;;
54193;SDS011;40102;50.906;6.972;2023-05-10T07:57:23;11.35;;;5.82;;
54193;SDS011;40102;50.906;6.972;2023-05-10T08:03:28;11.45;;;5.47;;
54193;SDS011;40102;50.906;6.972;2023-05-10T08:05:54;10.35;;;5.38;;
54193;SDS011;40102;50.906;6.972;2023-05-10T08:08:19;11.32;;;5.15;;
54193;SDS011;40102;50.906;6.972;2023-05-10T08:10:46;9.80;;;5.22;;
54193;SDS011;40102;50.906;6.972;2023-05-10T08:13:11;8.57;;;4.70;;
54193;SDS011;40102;50.906;6.972;2023-05-10T08:15:37;9.02;;;4.82;;
54193;SDS011;40102;50.906;6.972;2023-05-10T08:18:02;9.48;;;4.68;;
54193;SDS011;40102;50.906;6.972;2023-05-10T08:20:29;7.28;;;4.10;;
54193;SDS011;40102;50.906;6.972;2023-05-10T08:22:54;7.80;;;3.92;;
54193;SDS011;40102;50.906;6.972;2023-05-10T08:25:20;7.18;;;3.92;;
54193;SDS011;40102;50.906;6.972;2023-05-10T08:27:45;6.53;;;3.47;;
54193;SDS011;40102;50.906;6.972;2023-05-10T08:30:10;7.47;;;3.75;;
54193;SDS011;40102;50.906;6.972;2023-05-10T08:32:37;8.90;;;3.63;;
54193;SDS011;40102;50.906;6.972;2023-05-10T08:35:02;5.00;;;3.42;;
54193;SDS011;40102;50.906;6.972;2023-05-10T08:37:29;7.32;;;4.05;;
54193;SDS011;40102;50.906;6.972;2023-05-10T08:39:55;8.25;;;3.33;;
54193;SDS011;40102;50.906;6.972;2023-05-10T08:42:20;7.43;;;3.40;;
54193;SDS011;40102;50.906;6.972;2023-05-10T08:44:48;5.00;;;2.78;;
54193;SDS011;40102;50.906;6.972;2023-05-10T08:47:13;10.23;;;3.08;;
54193;SDS011;40102;50.906;6.972;2023-05-10T08:49:41;4.60;;;2.45;;
54193;SDS011;40102;50.906;6.972;2023-05-10T08:52:08;3.58;;;2.22;;
54193;SDS011;40102;50.906;6.972;2023-05-10T08:54:38;4.70;;;2.25;;
54193;SDS011;40102;50.906;6.972;2023-05-10T08:57:03;4.78;;;2.22;;
54193;SDS011;40102;50.906;6.972;2023-05-10T08:59:29;3.60;;;2.83;;
54193;SDS011;40102;50.906;6.972;2023-05-10T09:01:55;6.38;;;3.20;;
54193;SDS011;40102;50.906;6.972;2023-05-10T09:04:23;5.70;;;3.65;;
54193;SDS011;40102;50.906;6.972;2023-05-10T09:06:49;5.38;;;3.30;;
54193;SDS011;40102;50.906;6.972;2023-05-10T09:09:14;4.00;;;3.13;;
54193;SDS011;40102;50.906;6.972;2023-05-10T09:11:41;5.97;;;3.65;;
54193;SDS011;40102;50.906;6.972;2023-05-10T09:14:06;6.25;;;3.85;;
54193;SDS011;40102;50.906;6.972;2023-05-10T09:16:32;6.93;;;3.03;;
54193;SDS011;40102;50.906;6.972;2023-05-10T09:18:57;5.43;;;3.65;;
54193;SDS011;40102;50.906;6.972;2023-05-10T09:21:22;5.88;;;3.60;;
54193;SDS011;40102;50.906;6.972;2023-05-10T09:23:48;5.82;;;3.47;;
54193;SDS011;40102;50.906;6.972;2023-05-10T09:26:14;5.50;;;3.55;;
54193;SDS011;40102;50.906;6.972;2023-05-10T09:28:53;6.97;;;3.40;;
54193;SDS011;40102;50.906;6.972;2023-05-10T09:31:20;6.35;;;3.70;;
54193;SDS011;40102;50.906;6.972;2023-05-10T09:33:47;3.90;;;2.83;;
54193;SDS011;40102;50.906;6.972;2023-05-10T09:36:13;4.75;;;2.80;;
54193;SDS011;40102;50.906;6.972;2023-05-10T09:38:46;3.90;;;2.25;;
54193;SDS011;40102;50.906;6.972;2023-05-10T09:41:16;3.35;;;1.83;;
54193;SDS011;40102;50.906;6.972;2023-05-10T09:46:09;3.93;;;2.03;;
54193;SDS011;40102;50.906;6.972;2023-05-10T09:48:39;3.50;;;2.08;;
54193;SDS011;40102;50.906;6.972;2023-05-10T09:51:07;4.15;;;2.50;;
54193;SDS011;40102;50.906;6.972;2023-05-10T09:53:33;5.05;;;2.95;;
54193;SDS011;40102;50.906;6.972;2023-05-10T09:55:58;5.40;;;3.47;;
54193;SDS011;40102;50.906;6.972;2023-05-10T09:58:23;7.57;;;4.03;;
54193;SDS011;40102;50.906;6.972;2023-05-10T10:00:49;7.32;;;4.32;;
54193;SDS011;40102;50.906;6.972;2023-05-10T10:03:18;12.35;;;5.43;;
54193;SDS011;40102;50.906;6.972;2023-05-10T10:05:45;11.27;;;5.53;;
54193;SDS011;40102;50.906;6.972;2023-05-10T10:08:12;10.40;;;5.35;;
54193;SDS011;40102;50.906;6.972;2023-05-10T10:10:39;10.75;;;4.78;;
54193;SDS011;40102;50.906;6.972;2023-05-10T10:13:05;7.80;;;4.45;;
54193;SDS011;40102;50.906;6.972;2023-05-10T10:15:31;8.93;;;4.70;;
54193;SDS011;40102;50.906;6.972;2023-05-10T10:17:58;7.88;;;4.30;;
54193;SDS011;40102;50.906;6.972;2023-05-10T10:20:24;9.00;;;4.82;;
54193;SDS011;40102;50.906;6.972;2023-05-10T10:22:52;6.90;;;4.10;;
54193;SDS011;40102;50.906;6.972;2023-05-10T10:25:18;8.32;;;3.58;;
54193;SDS011;40102;50.906;6.972;2023-05-10T10:35:35;6.80;;;3.50;;
54193;SDS011;40102;50.906;6.972;2023-05-10T10:38:01;7.13;;;3.35;;
54193;SDS011;40102;50.906;6.972;2023-05-10T10:40:30;7.88;;;3.83;;
54193;SDS011;40102;50.906;6.972;2023-05-10T10:42:57;8.60;;;3.92;;
54193;SDS011;40102;50.906;6.972;2023-05-10T10:45:24;6.68;;;3.78;;
54193;SDS011;40102;50.906;6.972;2023-05-10T10:47:54;8.13;;;3.95;;
54193;SDS011;40102;50.906;6.972;2023-05-10T10:50:48;9.60;;;3.90;;
54193;SDS011;40102;50.906;6.972;2023-05-10T10:53:21;7.68;;;4.15;;
54193;SDS011;40102;50.906;6.972;2023-05-10T10:55:47;11.07;;;4.72;;
54193;SDS011;40102;50.906;6.972;2023-05-10T10:58:28;7.60;;;4.50;;
54193;SDS011;40102;50.906;6.972;2023-05-10T11:03:39;6.57;;;3.40;;
54193;SDS011;40102;50.906;6.972;2023-05-10T11:06:05;4.45;;;3.10;;
54193;SDS011;40102;50.906;6.972;2023-05-10T11:08:31;5.35;;;3.30;;
54193;SDS011;40102;50.906;6.972;2023-05-10T11:13:29;5.25;;;2.80;;
54193;SDS011;40102;50.906;6.972;2023-05-10T11:16:09;5.38;;;3.03;;
54193;SDS011;40102;50.906;6.972;2023-05-10T11:18:39;4.15;;;2.15;;
54193;SDS011;40102;50.906;6.972;2023-05-10T11:21:08;5.45;;;2.50;;
54193;SDS011;40102;50.906;6.972;2023-05-10T11:26:09;4.00;;;2.38;;
54193;SDS011;40102;50.906;6.972;2023-05-10T11:31:15;3.00;;;1.77;;
54193;SDS011;40102;50.906;6.972;2023-05-10T11:33:42;3.38;;;2.45;;
54193;SDS011;40102;50.906;6.972;2023-05-10T11:36:13;4.18;;;1.70;;
54193;SDS011;40102;50.906;6.972;2023-05-10T11:38:40;2.03;;;1.35;;
54193;SDS011;40102;50.906;6.972;2023-05-10T11:41:05;3.70;;;1.90;;
54193;SDS011;40102;50.906;6.972;2023-05-10T11:43:33;2.85;;;1.83;;
54193;SDS011;40102;50.906;6.972;2023-05-10T11:46:00;3.80;;;2.05;;
54193;SDS011;40102;50.906;6.972;2023-05-10T11:48:25;2.83;;;1.52;;
54193;SDS011;40102;50.906;6.972;2023-05-10T11:50:51;2.38;;;1.67;;
54193;SDS011;40102;50.906;6.972;2023-05-10T11:53:17;2.40;;;1.50;;
54193;SDS011;40102;50.906;6.972;2023-05-10T11:55:45;2.90;;;1.45;;
54193;SDS011;40102;50.906;6.972;2023-05-10T11:58:10;2.25;;;1.60;;
54193;SDS011;40102;50.906;6.972;2023-05-10T12:00:36;2.10;;;1.58;;
54193;SDS011;40102;50.906;6.972;2023-05-10T12:03:01;2.72;;;1.40;;
54193;SDS011;40102;50.906;6.972;2023-05-10T12:05:27;2.08;;;1.30;;
54193;SDS011;40102;50.906;6.972;2023-05-10T12:08:10;2.22;;;1.40;;
54193;SDS011;40102;50.906;6.972;2023-05-10T12:10:36;1.73;;;1.30;;
54193;SDS011;40102;50.906;6.972;2023-05-10T12:13:01;1.58;;;1.35;;
54193;SDS011;40102;50.906;6.972;2023-05-10T12:15:28;2.38;;;1.30;;
54193;SDS011;40102;50.906;6.972;2023-05-10T12:17:53;1.42;;;1.20;;
54193;SDS011;40102;50.906;6.972;2023-05-10T12:20:19;1.90;;;1.17;;
54193;SDS011;40102;50.906;6.972;2023-05-10T12:22:53;1.92;;;1.27;;
54193;SDS011;40102;50.906;6.972;2023-05-10T12:25:21;2.30;;;1.42;;
54193;SDS011;40102;50.906;6.972;2023-05-10T12:27:51;1.98;;;1.10;;
54193;SDS011;40102;50.906;6.972;2023-05-10T12:30:19;2.35;;;1.45;;
54193;SDS011;40102;50.906;6.972;2023-05-10T12:32:48;1.60;;;1.15;;
54193;SDS011;40102;50.906;6.972;2023-05-10T12:35:13;1.90;;;1.27;;
54193;SDS011;40102;50.906;6.972;2023-05-10T12:37:40;2.08;;;1.20;;
54193;SDS011;40102;50.906;6.972;2023-05-10T12:40:06;1.90;;;1.00;;
54193;SDS011;40102;50.906;6.972;2023-05-10T12:42:33;2.40;;;1.30;;
54193;SDS011;40102;50.906;6.972;2023-05-10T12:44:59;1.10;;;0.98;;
54193;SDS011;40102;50.906;6.972;2023-05-10T12:47:24;1.35;;;1.10;;
54193;SDS011;40102;50.906;6.972;2023-05-10T12:49:49;1.42;;;0.90;;
54193;SDS011;40102;50.906;6.972;2023-05-10T12:52:16;0.88;;;0.80;;
54193;SDS011;40102;50.906;6.972;2023-05-10T12:54:41;1.00;;;0.70;;
54193;SDS011;40102;50.906;6.972;2023-05-10T12:57:06;2.22;;;0.98;;
54193;SDS011;40102;50.906;6.972;2023-05-10T12:59:32;1.15;;;1.00;;
54193;SDS011;40102;50.906;6.972;2023-05-10T13:01:57;1.52;;;1.02;;
54193;SDS011;40102;50.906;6.972;2023-05-10T13:04:22;1.70;;;1.48;;
54193;SDS011;40102;50.906;6.972;2023-05-10T13:06:48;1.73;;;1.05;;
54193;SDS011;40102;50.906;6.972;2023-05-10T13:09:13;1.80;;;1.13;;
54193;SDS011;40102;50.906;6.972;2023-05-10T13:11:38;1.25;;;1.10;;
54193;SDS011;40102;50.906;6.972;2023-05-10T13:14:04;1.45;;;1.20;;
54193;SDS011;40102;50.906;6.972;2023-05-10T13:16:29;1.15;;;1.05;;
54193;SDS011;40102;50.906;6.972;2023-05-10T13:18:55;1.30;;;1.20;;
54193;SDS011;40102;50.906;6.972;2023-05-10T13:21:20;2.08;;;1.20;;
54193;SDS011;40102;50.906;6.972;2023-05-10T13:23:45;1.60;;;1.15;;
54193;SDS011;40102;50.906;6.972;2023-05-10T13:26:11;1.95;;;1.02;;
54193;SDS011;40102;50.906;6.972;2023-05-10T13:28:37;1.27;;;1.10;;
54193;SDS011;40102;50.906;6.972;2023-05-10T13:31:03;1.90;;;1.40;;
54193;SDS011;40102;50.906;6.972;2023-05-10T13:33:29;2.13;;;1.50;;
54193;SDS011;40102;50.906;6.972;2023-05-10T13:35:55;1.55;;;1.13;;
54193;SDS011;40102;50.906;6.972;2023-05-10T13:38:20;2.58;;;1.00;;
54193;SDS011;40102;50.906;6.972;2023-05-10T13:40:45;1.25;;;1.15;;
54193;SDS011;40102;50.906;6.972;2023-05-10T13:43:11;1.35;;;1.25;;
54193;SDS011;40102;50.906;6.972;2023-05-10T13:45:36;1.05;;;0.95;;
54193;SDS011;40102;50.906;6.972;2023-05-10T13:48:01;1.92;;;0.90;;
54193;SDS011;40102;50.906;6.972;2023-05-10T13:50:27;1.95;;;0.80;;
54193;SDS011;40102;50.906;6.972;2023-05-10T13:52:52;1.05;;;0.80;;
54193;SDS011;40102;50.906;6.972;2023-05-10T13:55:18;0.98;;;0.80;;
54193;SDS011;40102;50.906;6.972;2023-05-10T13:57:43;1.08;;;0.82;;
54193;SDS011;40102;50.906;6.972;2023-05-10T14:00:08;0.80;;;0.80;;
54193;SDS011;40102;50.906;6.972;2023-05-10T14:02:34;1.45;;;0.65;;
54193;SDS011;40102;50.906;6.972;2023-05-10T14:05:00;0.90;;;0.70;;
54193;SDS011;40102;50.906;6.972;2023-05-10T14:07:26;0.80;;;0.60;;
54193;SDS011;40102;50.906;6.972;2023-05-10T14:09:51;1.00;;;0.70;;
54193;SDS011;40102;50.906;6.972;2023-05-10T14:12:16;0.63;;;0.60;;
54193;SDS011;40102;50.906;6.972;2023-05-10T14:14:42;0.75;;;0.60;;
54193;SDS011;40102;50.906;6.972;2023-05-10T14:17:11;1.83;;;0.65;;
54193;SDS011;40102;50.906;6.972;2023-05-10T14:19:36;1.10;;;0.68;;
54193;SDS011;40102;50.906;6.972;2023-05-10T14:22:01;1.35;;;0.70;;
54193;SDS011;40102;50.906;6.972;2023-05-10T14:24:26;1.65;;;0.60;;
54193;SDS011;40102;50.906;6.972;2023-05-10T14:26:52;1.50;;;0.50;;
54193;SDS011;40102;50.906;6.972;2023-05-10T14:29:19;0.65;;;0.65;;
54193;SDS011;40102;50.906;6.972;2023-05-10T14:31:45;2.45;;;0.70;;
54193;SDS011;40102;50.906;6.972;2023-05-10T14:34:10;1.02;;;0.68;;
54193;SDS011;40102;50.906;6.972;2023-05-10T14:36:35;1.13;;;0.60;;
54193;SDS011;40102;50.906;6.972;2023-05-10T14:39:01;1.02;;;0.70;;
54193;SDS011;40102;50.906;6.972;2023-05-10T14:41:26;1.33;;;0.70;;
54193;SDS011;40102;50.906;6.972;2023-05-10T14:43:52;0.90;;;0.77;;
54193;SDS011;40102;50.906;6.972;2023-05-10T14:46:17;1.60;;;0.70;;
54193;SDS011;40102;50.906;6.972;2023-05-10T14:48:43;2.20;;;0.75;;
54193;SDS011;40102;50.906;6.972;2023-05-10T14:51:08;1.00;;;0.80;;
54193;SDS011;40102;50.906;6.972;2023-05-10T14:53:33;0.93;;;0.60;;
54193;SDS011;40102;50.906;6.972;2023-05-10T14:55:59;2.03;;;0.68;;
54193;SDS011;40102;50.906;6.972;2023-05-10T14:58:26;1.00;;;0.60;;
54193;SDS011;40102;50.906;6.972;2023-05-10T15:00:51;1.63;;;0.80;;
54193;SDS011;40102;50.906;6.972;2023-05-10T15:03:17;1.33;;;1.00;;
54193;SDS011;40102;50.906;6.972;2023-05-10T15:05:42;0.90;;;0.65;;
54193;SDS011;40102;50.906;6.972;2023-05-10T15:08:08;2.38;;;0.90;;
54193;SDS011;40102;50.906;6.972;2023-05-10T15:10:34;1.60;;;0.80;;
54193;SDS011;40102;50.906;6.972;2023-05-10T15:12:59;1.73;;;0.93;;
54193;SDS011;40102;50.906;6.972;2023-05-10T15:15:25;1.35;;;0.93;;
54193;SDS011;40102;50.906;6.972;2023-05-10T15:17:50;1.20;;;0.90;;
54193;SDS011;40102;50.906;6.972;2023-05-10T15:20:16;2.40;;;0.88;;
54193;SDS011;40102;50.906;6.972;2023-05-10T15:22:41;1.15;;;1.00;;
54193;SDS011;40102;50.906;6.972;2023-05-10T15:25:07;2.28;;;0.90;;